Terminal Aerodrome Forecast
Issued by NWS Louisville, KY

Home | Current Version | Previous Version | Text Only | Print | Product List | Glossary On
Versions: 1 2 3 4 5 6 7 8 9 10 11 12 13 14 15 16 17 18
000
FTUS43 KLMK 171123
TAFSDF
TAF
KSDF 171123Z 1712/1818 00000KT 6SM BR SKC
      TEMPO 1712/1714 4SM BR
     FM171400 00000KT P6SM FEW045 FEW250
     FM180000 00000KT P6SM SCT250
      TEMPO 1811/1812 5SM BR=

USA.gov is the U.S. government's official web portal to all federal, state and local government web resources and services.